sensor_id;sensor_type;location;lat;lon;timestamp;pressure;altitude;pressure_sealevel;temperature;humidity
58471;BME280;44258;51.288;12.068;2023-01-25T00:01:49;102623.84;;;1.44;73.25
58471;BME280;44258;51.288;12.068;2023-01-25T00:04:17;102616.19;;;0.71;75.64
58471;BME280;44258;51.288;12.068;2023-01-25T00:06:44;102610.13;;;1.19;73.81
58471;BME280;44258;51.288;12.068;2023-01-25T00:09:11;102606.34;;;1.54;72.11
58471;BME280;44258;51.288;12.068;2023-01-25T00:11:38;102598.47;;;1.58;71.97
58471;BME280;44258;51.288;12.068;2023-01-25T00:14:05;102600.38;;;1.17;73.22
58471;BME280;44258;51.288;12.068;2023-01-25T00:16:33;102599.34;;;1.57;72.45
58471;BME280;44258;51.288;12.068;2023-01-25T00:18:59;102597.22;;;1.88;71.20
58471;BME280;44258;51.288;12.068;2023-01-25T00:21:27;102604.59;;;2.07;70.74
58471;BME280;44258;51.288;12.068;2023-01-25T00:23:53;102599.97;;;1.94;70.87
58471;BME280;44258;51.288;12.068;2023-01-25T00:26:20;102604.25;;;1.87;70.51
58471;BME280;44258;51.288;12.068;2023-01-25T00:28:47;102600.00;;;1.45;72.15
58471;BME280;44258;51.288;12.068;2023-01-25T00:31:20;102603.00;;;1.64;71.69
58471;BME280;44258;51.288;12.068;2023-01-25T00:33:51;102585.72;;;1.39;71.80
58471;BME280;44258;51.288;12.068;2023-01-25T00:36:39;102591.28;;;1.51;72.47
58471;BME280;44258;51.288;12.068;2023-01-25T00:39:10;102587.38;;;1.82;71.41
58471;BME280;44258;51.288;12.068;2023-01-25T00:41:37;102585.50;;;1.77;70.60
58471;BME280;44258;51.288;12.068;2023-01-25T00:44:04;102586.38;;;1.74;70.72
58471;BME280;44258;51.288;12.068;2023-01-25T00:46:31;102592.16;;;1.51;71.62
58471;BME280;44258;51.288;12.068;2023-01-25T00:48:58;102590.28;;;1.46;71.56
58471;BME280;44258;51.288;12.068;2023-01-25T00:51:25;102594.81;;;1.51;71.88
58471;BME280;44258;51.288;12.068;2023-01-25T00:53:52;102590.06;;;1.34;72.73
58471;BME280;44258;51.288;12.068;2023-01-25T00:56:19;102595.41;;;0.89;73.75
58471;BME280;44258;51.288;12.068;2023-01-25T00:58:45;102593.59;;;0.46;76.30
58471;BME280;44258;51.288;12.068;2023-01-25T01:01:12;102594.91;;;1.09;74.31
58471;BME280;44258;51.288;12.068;2023-01-25T01:03:39;102598.31;;;1.49;72.67
58471;BME280;44258;51.288;12.068;2023-01-25T01:06:09;102600.34;;;1.64;71.51
58471;BME280;44258;51.288;12.068;2023-01-25T01:08:40;102601.22;;;1.64;71.40
58471;BME280;44258;51.288;12.068;2023-01-25T01:11:09;102592.09;;;1.48;71.45
58471;BME280;44258;51.288;12.068;2023-01-25T01:13:36;102604.63;;;1.56;71.38
58471;BME280;44258;51.288;12.068;2023-01-25T01:16:04;102602.78;;;1.51;71.73
58471;BME280;44258;51.288;12.068;2023-01-25T01:18:32;102593.13;;;1.57;71.39
58471;BME280;44258;51.288;12.068;2023-01-25T01:20:59;102586.16;;;1.62;71.39
58471;BME280;44258;51.288;12.068;2023-01-25T01:23:31;102585.97;;;1.52;71.39
58471;BME280;44258;51.288;12.068;2023-01-25T01:25:58;102589.53;;;1.51;71.48
58471;BME280;44258;51.288;12.068;2023-01-25T01:28:26;102582.97;;;1.32;72.02
58471;BME280;44258;51.288;12.068;2023-01-25T01:30:53;102589.47;;;1.50;71.85
58471;BME280;44258;51.288;12.068;2023-01-25T01:33:19;102591.41;;;1.57;71.71
58471;BME280;44258;51.288;12.068;2023-01-25T01:35:46;102579.13;;;1.64;71.80
58471;BME280;44258;51.288;12.068;2023-01-25T01:38:12;102577.44;;;1.67;71.32
58471;BME280;44258;51.288;12.068;2023-01-25T01:40:45;102563.28;;;1.68;71.28
58471;BME280;44258;51.288;12.068;2023-01-25T01:43:16;102564.13;;;1.66;71.61
58471;BME280;44258;51.288;12.068;2023-01-25T01:45:49;102557.22;;;1.76;71.25
58471;BME280;44258;51.288;12.068;2023-01-25T01:48:18;102551.06;;;1.78;70.89
58471;BME280;44258;51.288;12.068;2023-01-25T01:50:46;102549.00;;;1.60;71.20
58471;BME280;44258;51.288;12.068;2023-01-25T01:53:16;102549.75;;;1.51;71.62
58471;BME280;44258;51.288;12.068;2023-01-25T01:55:44;102552.03;;;1.31;72.52
58471;BME280;44258;51.288;12.068;2023-01-25T01:58:11;102550.09;;;1.21;72.49
58471;BME280;44258;51.288;12.068;2023-01-25T02:00:39;102532.69;;;1.36;72.78
58471;BME280;44258;51.288;12.068;2023-01-25T02:03:06;102531.91;;;1.41;72.29
58471;BME280;44258;51.288;12.068;2023-01-25T02:05:39;102527.72;;;1.56;72.07
58471;BME280;44258;51.288;12.068;2023-01-25T02:08:09;102520.72;;;1.61;71.59
58471;BME280;44258;51.288;12.068;2023-01-25T02:10:40;102516.31;;;1.63;71.71
58471;BME280;44258;51.288;12.068;2023-01-25T02:13:09;102510.13;;;1.61;71.25
58471;BME280;44258;51.288;12.068;2023-01-25T02:15:37;102503.94;;;1.60;71.43
58471;BME280;44258;51.288;12.068;2023-01-25T02:18:06;102508.44;;;1.66;71.10
58471;BME280;44258;51.288;12.068;2023-01-25T02:20:37;102507.44;;;1.58;71.16
58471;BME280;44258;51.288;12.068;2023-01-25T02:23:10;102509.09;;;1.51;71.59
58471;BME280;44258;51.288;12.068;2023-01-25T02:25:43;102505.91;;;1.20;72.01
58471;BME280;44258;51.288;12.068;2023-01-25T02:28:13;102502.31;;;1.17;72.66
58471;BME280;44258;51.288;12.068;2023-01-25T02:30:41;102503.50;;;1.34;72.02
58471;BME280;44258;51.288;12.068;2023-01-25T02:33:08;102495.88;;;1.54;72.09
58471;BME280;44258;51.288;12.068;2023-01-25T02:35:41;102488.81;;;1.53;71.63
58471;BME280;44258;51.288;12.068;2023-01-25T02:38:11;102485.47;;;1.66;71.47
58471;BME280;44258;51.288;12.068;2023-01-25T02:40:46;102481.19;;;1.76;70.93
58471;BME280;44258;51.288;12.068;2023-01-25T02:43:15;102482.13;;;1.81;70.69
58471;BME280;44258;51.288;12.068;2023-01-25T02:45:44;102474.13;;;1.77;70.80
58471;BME280;44258;51.288;12.068;2023-01-25T02:48:11;102474.09;;;1.75;70.81
58471;BME280;44258;51.288;12.068;2023-01-25T02:50:38;102479.38;;;1.75;70.74
58471;BME280;44258;51.288;12.068;2023-01-25T02:53:05;102478.66;;;1.84;70.88
58471;BME280;44258;51.288;12.068;2023-01-25T02:55:31;102477.06;;;1.97;70.47
58471;BME280;44258;51.288;12.068;2023-01-25T02:58:00;102480.69;;;2.03;69.89
58471;BME280;44258;51.288;12.068;2023-01-25T03:00:26;102474.44;;;1.98;69.77
58471;BME280;44258;51.288;12.068;2023-01-25T03:02:53;102487.63;;;1.92;70.05
58471;BME280;44258;51.288;12.068;2023-01-25T03:05:20;102476.84;;;1.83;70.05
58471;BME280;44258;51.288;12.068;2023-01-25T03:07:46;102473.19;;;1.71;70.80
58471;BME280;44258;51.288;12.068;2023-01-25T03:10:14;102475.03;;;1.79;70.63
58471;BME280;44258;51.288;12.068;2023-01-25T03:12:40;102470.47;;;1.68;71.21
58471;BME280;44258;51.288;12.068;2023-01-25T03:15:08;102474.19;;;1.80;70.40
58471;BME280;44258;51.288;12.068;2023-01-25T03:17:35;102470.66;;;1.82;70.33
58471;BME280;44258;51.288;12.068;2023-01-25T03:20:02;102465.28;;;1.76;70.54
58471;BME280;44258;51.288;12.068;2023-01-25T03:22:30;102464.31;;;1.71;70.68
58471;BME280;44258;51.288;12.068;2023-01-25T03:24:56;102461.00;;;1.86;70.66
58471;BME280;44258;51.288;12.068;2023-01-25T03:27:24;102458.44;;;1.92;70.24
58471;BME280;44258;51.288;12.068;2023-01-25T03:29:50;102459.19;;;1.83;70.09
58471;BME280;44258;51.288;12.068;2023-01-25T03:32:18;102450.31;;;1.81;70.49
58471;BME280;44258;51.288;12.068;2023-01-25T03:34:44;102449.56;;;1.91;70.46
58471;BME280;44258;51.288;12.068;2023-01-25T03:37:11;102441.72;;;1.99;70.31
58471;BME280;44258;51.288;12.068;2023-01-25T03:39:37;102444.53;;;2.10;70.07
58471;BME280;44258;51.288;12.068;2023-01-25T03:42:04;102443.75;;;2.19;69.79
58471;BME280;44258;51.288;12.068;2023-01-25T03:44:31;102447.22;;;2.13;69.75
58471;BME280;44258;51.288;12.068;2023-01-25T03:46:57;102440.13;;;2.13;69.60
58471;BME280;44258;51.288;12.068;2023-01-25T03:49:25;102446.22;;;2.05;69.95
58471;BME280;44258;51.288;12.068;2023-01-25T03:51:52;102434.91;;;2.20;69.49
58471;BME280;44258;51.288;12.068;2023-01-25T03:54:19;102435.91;;;2.29;69.61
58471;BME280;44258;51.288;12.068;2023-01-25T03:56:45;102428.81;;;2.27;69.18
58471;BME280;44258;51.288;12.068;2023-01-25T03:59:12;102429.66;;;2.26;69.23
58471;BME280;44258;51.288;12.068;2023-01-25T04:01:38;102442.94;;;2.24;69.25
58471;BME280;44258;51.288;12.068;2023-01-25T04:04:05;102440.03;;;2.06;69.74
58471;BME280;44258;51.288;12.068;2023-01-25T04:06:33;102435.84;;;2.23;69.80
58471;BME280;44258;51.288;12.068;2023-01-25T04:08:59;102433.28;;;2.34;69.53
58471;BME280;44258;51.288;12.068;2023-01-25T04:11:26;102430.72;;;2.40;69.28
58471;BME280;44258;51.288;12.068;2023-01-25T04:13:52;102439.59;;;2.41;68.93
58471;BME280;44258;51.288;12.068;2023-01-25T04:16:19;102433.41;;;2.42;68.78
58471;BME280;44258;51.288;12.068;2023-01-25T04:18:45;102426.16;;;2.30;69.01
58471;BME280;44258;51.288;12.068;2023-01-25T04:21:12;102426.16;;;2.30;69.18
58471;BME280;44258;51.288;12.068;2023-01-25T04:23:42;102420.94;;;2.36;68.85
58471;BME280;44258;51.288;12.068;2023-01-25T04:26:09;102416.28;;;2.17;69.68
58471;BME280;44258;51.288;12.068;2023-01-25T04:28:37;102416.47;;;2.32;69.33
58471;BME280;44258;51.288;12.068;2023-01-25T04:31:04;102417.19;;;2.17;69.36
58471;BME280;44258;51.288;12.068;2023-01-25T04:33:31;102408.50;;;2.30;69.32
58471;BME280;44258;51.288;12.068;2023-01-25T04:35:58;102412.06;;;2.34;69.13
58471;BME280;44258;51.288;12.068;2023-01-25T04:38:25;102406.69;;;2.28;68.97
58471;BME280;44258;51.288;12.068;2023-01-25T04:40:53;102407.13;;;1.91;70.02
58471;BME280;44258;51.288;12.068;2023-01-25T04:43:20;102412.41;;;1.91;69.49
58471;BME280;44258;51.288;12.068;2023-01-25T04:45:47;102411.44;;;1.83;69.80
58471;BME280;44258;51.288;12.068;2023-01-25T04:48:13;102407.88;;;1.83;69.68
58471;BME280;44258;51.288;12.068;2023-01-25T04:50:41;102406.94;;;1.79;70.35
58471;BME280;44258;51.288;12.068;2023-01-25T04:53:09;102404.03;;;1.59;71.55
58471;BME280;44258;51.288;12.068;2023-01-25T04:55:37;102407.97;;;1.28;72.72
58471;BME280;44258;51.288;12.068;2023-01-25T04:58:05;102398.78;;;1.62;72.07
58471;BME280;44258;51.288;12.068;2023-01-25T05:00:32;102406.19;;;1.88;71.13
58471;BME280;44258;51.288;12.068;2023-01-25T05:02:58;102397.50;;;2.00;70.29
58471;BME280;44258;51.288;12.068;2023-01-25T05:05:25;102387.03;;;2.10;70.12
58471;BME280;44258;51.288;12.068;2023-01-25T05:07:51;102388.91;;;2.19;69.73
58471;BME280;44258;51.288;12.068;2023-01-25T05:10:18;102387.84;;;2.08;69.25
58471;BME280;44258;51.288;12.068;2023-01-25T05:12:45;102386.94;;;2.04;69.38
58471;BME280;44258;51.288;12.068;2023-01-25T05:15:12;102391.75;;;1.66;71.13
58471;BME280;44258;51.288;12.068;2023-01-25T05:17:39;102393.56;;;1.09;73.77
58471;BME280;44258;51.288;12.068;2023-01-25T05:20:07;102391.63;;;1.58;71.97
58471;BME280;44258;51.288;12.068;2023-01-25T05:22:34;102397.16;;;1.75;71.00
58471;BME280;44258;51.288;12.068;2023-01-25T05:25:00;102392.53;;;1.59;71.50
58471;BME280;44258;51.288;12.068;2023-01-25T05:27:28;102390.56;;;1.44;72.56
58471;BME280;44258;51.288;12.068;2023-01-25T05:29:54;102393.09;;;1.36;72.34
58471;BME280;44258;51.288;12.068;2023-01-25T05:32:23;102383.81;;;1.66;71.83
58471;BME280;44258;51.288;12.068;2023-01-25T05:34:50;102396.41;;;1.85;70.91
58471;BME280;44258;51.288;12.068;2023-01-25T05:37:18;102385.09;;;1.97;70.61
58471;BME280;44258;51.288;12.068;2023-01-25T05:39:46;102380.72;;;2.01;70.01
58471;BME280;44258;51.288;12.068;2023-01-25T05:42:14;102383.31;;;1.98;70.17
58471;BME280;44258;51.288;12.068;2023-01-25T05:44:41;102387.56;;;1.83;69.99
58471;BME280;44258;51.288;12.068;2023-01-25T05:47:11;102389.22;;;1.75;70.53
58471;BME280;44258;51.288;12.068;2023-01-25T05:49:39;102379.53;;;1.79;70.84
58471;BME280;44258;51.288;12.068;2023-01-25T05:52:05;102383.06;;;1.76;71.00
58471;BME280;44258;51.288;12.068;2023-01-25T05:54:32;102387.53;;;1.80;70.78
58471;BME280;44258;51.288;12.068;2023-01-25T05:56:58;102378.75;;;1.87;70.85
58471;BME280;44258;51.288;12.068;2023-01-25T05:59:25;102377.97;;;1.95;70.41
58471;BME280;44258;51.288;12.068;2023-01-25T06:01:52;102376.34;;;2.06;70.33
58471;BME280;44258;51.288;12.068;2023-01-25T06:04:18;102375.34;;;1.98;69.98
58471;BME280;44258;51.288;12.068;2023-01-25T06:06:46;102375.28;;;1.90;70.37
58471;BME280;44258;51.288;12.068;2023-01-25T06:09:14;102369.19;;;1.99;70.66
58471;BME280;44258;51.288;12.068;2023-01-25T06:11:42;102373.78;;;2.13;70.40
58471;BME280;44258;51.288;12.068;2023-01-25T06:14:09;102372.19;;;2.26;70.04
58471;BME280;44258;51.288;12.068;2023-01-25T06:16:36;102367.69;;;2.21;69.43
58471;BME280;44258;51.288;12.068;2023-01-25T06:19:05;102366.78;;;2.22;69.74
58471;BME280;44258;51.288;12.068;2023-01-25T06:21:32;102372.09;;;2.20;69.49
58471;BME280;44258;51.288;12.068;2023-01-25T06:24:02;102377.44;;;2.23;69.57
58471;BME280;44258;51.288;12.068;2023-01-25T06:26:29;102372.19;;;2.29;69.61
58471;BME280;44258;51.288;12.068;2023-01-25T06:28:56;102374.78;;;2.23;69.13
58471;BME280;44258;51.288;12.068;2023-01-25T06:31:22;102372.00;;;2.11;69.16
58471;BME280;44258;51.288;12.068;2023-01-25T06:33:50;102377.25;;;2.06;69.73
58471;BME280;44258;51.288;12.068;2023-01-25T06:36:18;102371.94;;;2.06;69.81
58471;BME280;44258;51.288;12.068;2023-01-25T06:38:47;102368.50;;;2.15;69.80
58471;BME280;44258;51.288;12.068;2023-01-25T06:41:15;102369.31;;;2.09;69.57
58471;BME280;44258;51.288;12.068;2023-01-25T06:43:42;102369.47;;;2.20;69.27
58471;BME280;44258;51.288;12.068;2023-01-25T06:46:09;102354.44;;;2.22;69.41
58471;BME280;44258;51.288;12.068;2023-01-25T06:48:37;102370.34;;;2.24;69.34
58471;BME280;44258;51.288;12.068;2023-01-25T06:51:05;102361.50;;;2.20;69.35
58471;BME280;44258;51.288;12.068;2023-01-25T06:53:34;102366.63;;;2.08;69.34
58471;BME280;44258;51.288;12.068;2023-01-25T06:56:03;102359.69;;;2.16;69.20
58471;BME280;44258;51.288;12.068;2023-01-25T06:58:32;102363.22;;;2.20;69.19
58471;BME280;44258;51.288;12.068;2023-01-25T07:01:03;102365.91;;;2.21;69.03
58471;BME280;44258;51.288;12.068;2023-01-25T07:03:30;102355.22;;;2.15;69.04
58471;BME280;44258;51.288;12.068;2023-01-25T07:05:58;102353.28;;;2.02;69.15
58471;BME280;44258;51.288;12.068;2023-01-25T07:08:25;102351.44;;;1.93;69.33
58471;BME280;44258;51.288;12.068;2023-01-25T07:10:55;102346.13;;;1.93;69.76
58471;BME280;44258;51.288;12.068;2023-01-25T07:13:22;102345.25;;;1.96;69.37
58471;BME280;44258;51.288;12.068;2023-01-25T07:15:54;102340.00;;;1.99;70.01
58471;BME280;44258;51.288;12.068;2023-01-25T07:18:21;102339.34;;;2.17;69.83
58471;BME280;44258;51.288;12.068;2023-01-25T07:20:48;102335.00;;;2.28;69.38
58471;BME280;44258;51.288;12.068;2023-01-25T07:23:15;102336.84;;;2.33;69.06
58471;BME280;44258;51.288;12.068;2023-01-25T07:25:45;102341.22;;;2.27;68.82
58471;BME280;44258;51.288;12.068;2023-01-25T07:28:12;102343.88;;;2.30;68.97
58471;BME280;44258;51.288;12.068;2023-01-25T07:30:39;102334.16;;;2.32;69.33
58471;BME280;44258;51.288;12.068;2023-01-25T07:33:07;102328.94;;;2.37;68.93
58471;BME280;44258;51.288;12.068;2023-01-25T07:35:34;102329.84;;;2.39;69.19
58471;BME280;44258;51.288;12.068;2023-01-25T07:38:01;102326.28;;;2.37;68.83
58471;BME280;44258;51.288;12.068;2023-01-25T07:40:27;102322.78;;;2.41;68.82
58471;BME280;44258;51.288;12.068;2023-01-25T07:42:54;102321.91;;;2.43;69.12
58471;BME280;44258;51.288;12.068;2023-01-25T07:45:20;102313.97;;;2.45;68.85
58471;BME280;44258;51.288;12.068;2023-01-25T07:47:52;102317.34;;;2.31;69.18
58471;BME280;44258;51.288;12.068;2023-01-25T07:50:20;102312.16;;;2.44;69.02
58471;BME280;44258;51.288;12.068;2023-01-25T07:52:47;102318.34;;;2.44;68.70
58471;BME280;44258;51.288;12.068;2023-01-25T07:55:13;102301.53;;;2.44;68.98
58471;BME280;44258;51.288;12.068;2023-01-25T07:57:40;102310.41;;;2.43;68.63
58471;BME280;44258;51.288;12.068;2023-01-25T08:00:08;102302.41;;;2.41;68.79
58471;BME280;44258;51.288;12.068;2023-01-25T08:02:35;102299.72;;;2.40;68.75
58471;BME280;44258;51.288;12.068;2023-01-25T08:05:01;102298.03;;;2.45;68.61
58471;BME280;44258;51.288;12.068;2023-01-25T08:07:30;102297.03;;;2.35;68.90
58471;BME280;44258;51.288;12.068;2023-01-25T08:09:57;102297.97;;;2.42;68.72
58471;BME280;44258;51.288;12.068;2023-01-25T08:12:24;102298.97;;;2.51;68.51
58471;BME280;44258;51.288;12.068;2023-01-25T08:14:52;102306.06;;;2.56;68.67
58471;BME280;44258;51.288;12.068;2023-01-25T08:17:21;102295.38;;;2.45;68.63
58471;BME280;44258;51.288;12.068;2023-01-25T08:19:48;102293.53;;;2.39;68.21
58471;BME280;44258;51.288;12.068;2023-01-25T08:22:15;102286.41;;;2.33;68.62
58471;BME280;44258;51.288;12.068;2023-01-25T08:24:42;102296.19;;;2.39;68.76
58471;BME280;44258;51.288;12.068;2023-01-25T08:27:09;102298.88;;;2.41;68.52
58471;BME280;44258;51.288;12.068;2023-01-25T08:29:36;102289.97;;;2.36;68.41
58471;BME280;44258;51.288;12.068;2023-01-25T08:32:02;102296.16;;;2.35;68.45
58471;BME280;44258;51.288;12.068;2023-01-25T08:34:30;102283.72;;;2.29;68.64
58471;BME280;44258;51.288;12.068;2023-01-25T08:36:57;102281.06;;;2.32;68.38
58471;BME280;44258;51.288;12.068;2023-01-25T08:39:26;102290.75;;;2.25;68.42
58471;BME280;44258;51.288;12.068;2023-01-25T08:41:54;102290.78;;;2.28;68.65
58471;BME280;44258;51.288;12.068;2023-01-25T08:44:20;102284.59;;;2.29;68.79
58471;BME280;44258;51.288;12.068;2023-01-25T08:46:49;102287.91;;;2.07;69.21
58471;BME280;44258;51.288;12.068;2023-01-25T08:49:16;102287.84;;;2.04;68.89
58471;BME280;44258;51.288;12.068;2023-01-25T08:51:43;102287.00;;;2.05;68.97
58471;BME280;44258;51.288;12.068;2023-01-25T08:54:11;102290.47;;;1.96;68.64
58471;BME280;44258;51.288;12.068;2023-01-25T08:56:38;102288.34;;;1.66;69.26
58471;BME280;44258;51.288;12.068;2023-01-25T08:59:09;102286.59;;;1.68;69.50
58471;BME280;44258;51.288;12.068;2023-01-25T09:01:36;102274.34;;;1.81;69.27
58471;BME280;44258;51.288;12.068;2023-01-25T09:04:03;102282.44;;;1.90;68.73
58471;BME280;44258;51.288;12.068;2023-01-25T09:06:30;102277.97;;;1.87;68.47
58471;BME280;44258;51.288;12.068;2023-01-25T09:08:57;102284.19;;;1.88;68.73
58471;BME280;44258;51.288;12.068;2023-01-25T09:11:25;102269.19;;;1.93;68.30
58471;BME280;44258;51.288;12.068;2023-01-25T09:13:51;102275.38;;;1.93;68.18
58471;BME280;44258;51.288;12.068;2023-01-25T09:16:21;102271.69;;;1.78;67.93
58471;BME280;44258;51.288;12.068;2023-01-25T09:18:53;102272.34;;;1.60;68.60
58471;BME280;44258;51.288;12.068;2023-01-25T09:21:20;102268.81;;;1.59;68.62
58471;BME280;44258;51.288;12.068;2023-01-25T09:23:49;102260.16;;;1.74;68.64
58471;BME280;44258;51.288;12.068;2023-01-25T09:26:16;102264.63;;;1.81;68.20
58471;BME280;44258;51.288;12.068;2023-01-25T09:28:46;102266.66;;;2.02;68.09
58471;BME280;44258;51.288;12.068;2023-01-25T09:31:13;102270.25;;;2.09;67.70
58471;BME280;44258;51.288;12.068;2023-01-25T09:33:41;102263.22;;;2.14;67.61
58471;BME280;44258;51.288;12.068;2023-01-25T09:36:08;102255.25;;;2.16;67.55
58471;BME280;44258;51.288;12.068;2023-01-25T09:38:35;102253.56;;;2.22;67.27
58471;BME280;44258;51.288;12.068;2023-01-25T09:41:13;102256.25;;;2.25;67.53
58471;BME280;44258;51.288;12.068;2023-01-25T09:43:55;102254.53;;;2.30;67.13
58471;BME280;44258;51.288;12.068;2023-01-25T09:46:39;102257.13;;;2.24;66.78
58471;BME280;44258;51.288;12.068;2023-01-25T09:49:20;102257.09;;;2.21;66.65
58471;BME280;44258;51.288;12.068;2023-01-25T09:52:11;102248.31;;;2.28;66.56
58471;BME280;44258;51.288;12.068;2023-01-25T09:54:44;102235.09;;;2.33;66.25
58471;BME280;44258;51.288;12.068;2023-01-25T09:57:14;102236.00;;;2.35;66.50
58471;BME280;44258;51.288;12.068;2023-01-25T09:59:44;102236.00;;;2.40;66.33
58471;BME280;44258;51.288;12.068;2023-01-25T10:02:23;102236.84;;;2.34;66.66
58471;BME280;44258;51.288;12.068;2023-01-25T10:04:58;102232.09;;;1.98;66.48
58471;BME280;44258;51.288;12.068;2023-01-25T10:07:33;102226.09;;;2.17;66.22
58471;BME280;44258;51.288;12.068;2023-01-25T10:10:10;102229.78;;;2.33;66.20
58471;BME280;44258;51.288;12.068;2023-01-25T10:12:42;102221.00;;;2.43;65.62
58471;BME280;44258;51.288;12.068;2023-01-25T10:15:17;102216.56;;;2.39;65.65
58471;BME280;44258;51.288;12.068;2023-01-25T10:17:44;102219.25;;;2.45;65.54
58471;BME280;44258;51.288;12.068;2023-01-25T10:20:21;102218.69;;;1.84;66.51
58471;BME280;44258;51.288;12.068;2023-01-25T10:22:58;102216.28;;;2.11;66.37
58471;BME280;44258;51.288;12.068;2023-01-25T10:25:34;102205.75;;;2.19;65.86
58471;BME280;44258;51.288;12.068;2023-01-25T10:28:11;102200.50;;;2.25;65.64
58471;BME280;44258;51.288;12.068;2023-01-25T10:30:49;102198.69;;;2.20;65.41
58471;BME280;44258;51.288;12.068;2023-01-25T10:33:19;102196.16;;;2.35;65.48
58471;BME280;44258;51.288;12.068;2023-01-25T10:35:48;102194.41;;;2.40;65.12
58471;BME280;44258;51.288;12.068;2023-01-25T10:38:18;102190.03;;;2.44;65.48
58471;BME280;44258;51.288;12.068;2023-01-25T10:40:50;102180.22;;;2.33;64.56
58471;BME280;44258;51.288;12.068;2023-01-25T10:43:19;102171.47;;;2.50;65.12
58471;BME280;44258;51.288;12.068;2023-01-25T10:45:47;102177.72;;;2.55;64.72
58471;BME280;44258;51.288;12.068;2023-01-25T10:48:18;102158.28;;;2.59;64.77
58471;BME280;44258;51.288;12.068;2023-01-25T10:50:54;102164.50;;;2.69;64.65
58471;BME280;44258;51.288;12.068;2023-01-25T10:53:24;102160.00;;;2.52;64.37
58471;BME280;44258;51.288;12.068;2023-01-25T10:56:13;102159.97;;;2.48;64.71
58471;BME280;44258;51.288;12.068;2023-01-25T10:58:45;102148.38;;;2.35;64.60
58471;BME280;44258;51.288;12.068;2023-01-25T11:01:27;102146.63;;;2.37;65.02
58471;BME280;44258;51.288;12.068;2023-01-25T11:03:55;102144.09;;;2.56;64.70
58471;BME280;44258;51.288;12.068;2023-01-25T11:06:32;102138.75;;;2.52;64.86
58471;BME280;44258;51.288;12.068;2023-01-25T11:09:00;102141.44;;;2.59;64.66
58471;BME280;44258;51.288;12.068;2023-01-25T11:11:31;102138.84;;;2.66;64.40
58471;BME280;44258;51.288;12.068;2023-01-25T11:14:00;102137.16;;;2.79;64.31
58471;BME280;44258;51.288;12.068;2023-01-25T11:16:32;102131.75;;;2.67;63.92
58471;BME280;44258;51.288;12.068;2023-01-25T11:19:00;102128.19;;;2.65;63.91
58471;BME280;44258;51.288;12.068;2023-01-25T11:21:30;102118.47;;;2.64;64.13
58471;BME280;44258;51.288;12.068;2023-01-25T11:24:15;102118.41;;;2.51;64.43
58471;BME280;44258;51.288;12.068;2023-01-25T11:26:43;102121.91;;;2.46;64.18
58471;BME280;44258;51.288;12.068;2023-01-25T11:29:12;102122.75;;;2.39;64.47
58471;BME280;44258;51.288;12.068;2023-01-25T11:31:40;102112.16;;;2.45;64.46
58471;BME280;44258;51.288;12.068;2023-01-25T11:34:10;102100.66;;;2.50;64.28
58471;BME280;44258;51.288;12.068;2023-01-25T11:36:46;102090.97;;;2.54;64.22
58471;BME280;44258;51.288;12.068;2023-01-25T11:39:40;102091.88;;;2.59;64.31
58471;BME280;44258;51.288;12.068;2023-01-25T11:42:20;102084.81;;;2.64;64.03
58471;BME280;44258;51.288;12.068;2023-01-25T11:45:21;102073.31;;;2.65;63.81
58471;BME280;44258;51.288;12.068;2023-01-25T11:48:05;102073.34;;;2.71;63.96
58471;BME280;44258;51.288;12.068;2023-01-25T11:50:40;102075.13;;;2.79;63.18
58471;BME280;44258;51.288;12.068;2023-01-25T11:53:32;102070.69;;;2.73;63.67
58471;BME280;44258;51.288;12.068;2023-01-25T11:56:06;102075.13;;;2.69;63.71
58471;BME280;44258;51.288;12.068;2023-01-25T11:58:48;102066.31;;;2.81;63.79
58471;BME280;44258;51.288;12.068;2023-01-25T12:01:26;102060.16;;;2.95;63.84
58471;BME280;44258;51.288;12.068;2023-01-25T12:06:58;102052.19;;;2.91;63.16
58471;BME280;44258;51.288;12.068;2023-01-25T12:09:40;102050.31;;;2.67;63.41
58471;BME280;44258;51.288;12.068;2023-01-25T12:12:23;102033.44;;;2.56;63.55
58471;BME280;44258;51.288;12.068;2023-01-25T12:18:13;102022.81;;;2.61;63.44
58471;BME280;44258;51.288;12.068;2023-01-25T12:21:02;102025.44;;;2.48;63.13
58471;BME280;44258;51.288;12.068;2023-01-25T12:23:35;102021.03;;;2.53;63.25
58471;BME280;44258;51.288;12.068;2023-01-25T12:26:15;102012.19;;;2.51;63.35
58471;BME280;44258;51.288;12.068;2023-01-25T12:28:48;102003.25;;;2.40;63.06
58471;BME280;44258;51.288;12.068;2023-01-25T12:31:17;102002.38;;;2.40;63.56
58471;BME280;44258;51.288;12.068;2023-01-25T12:33:50;102001.53;;;2.41;63.38
58471;BME280;44258;51.288;12.068;2023-01-25T12:36:23;101990.84;;;2.30;63.28
58471;BME280;44258;51.288;12.068;2023-01-25T12:38:56;101988.22;;;2.35;63.11
58471;BME280;44258;51.288;12.068;2023-01-25T12:41:32;101981.16;;;2.46;63.18
58471;BME280;44258;51.288;12.068;2023-01-25T12:44:08;101974.88;;;2.19;63.16
58471;BME280;44258;51.288;12.068;2023-01-25T12:46:42;101969.66;;;2.35;63.15
58471;BME280;44258;51.288;12.068;2023-01-25T12:49:16;101973.22;;;2.43;62.93
58471;BME280;44258;51.288;12.068;2023-01-25T12:51:46;101959.09;;;2.56;62.89
58471;BME280;44258;51.288;12.068;2023-01-25T12:54:18;101961.75;;;2.59;62.79
58471;BME280;44258;51.288;12.068;2023-01-25T12:56:56;101954.66;;;2.53;62.67
58471;BME280;44258;51.288;12.068;2023-01-25T12:59:32;101954.66;;;2.55;62.50
58471;BME280;44258;51.288;12.068;2023-01-25T13:02:08;101938.72;;;2.63;62.54
58471;BME280;44258;51.288;12.068;2023-01-25T13:04:48;101939.66;;;2.68;62.61
58471;BME280;44258;51.288;12.068;2023-01-25T13:07:23;101938.78;;;2.73;62.47
58471;BME280;44258;51.288;12.068;2023-01-25T13:09:57;101932.59;;;2.76;62.37